Trailer Estates, Florida
Current Conditions -  °F | °C
As of 10:53 PM on Tuesday 27 Jan 2015 (Local Time) from KSRQ Reporting Station
Clear Clear  
Wind Chill: 60°   Ceiling: Unl
Heat Index: 60°   Visibility: 10mi
Dew Point: 52°   Wind: 10mph
Humidity: 75%   Direction: 340°NNW
Pressure: 30.05"   Gusts: NA
Location:  27.4879°N, 82.5789°W
Report Text: KSRQ 280353Z AUTO 34009KT 10SM CLR 16/11 A3005 RMK AO2 SLP175 T01560111
Loading
Personal Weather Stations






























Interactive Weather Map New forecast layout! Learn more

10-Day Weather Forecast

Advertisements
Track Severe Weather on mobile